sensor_id;sensor_type;location;lat;lon;timestamp;P1;durP1;ratioP1;P2;durP2;ratioP2
35677;SDS011;21791;42.828;74.582;2023-01-19T00:00:27;198.45;;;83.88;;
35677;SDS011;21791;42.828;74.582;2023-01-19T00:02:54;206.48;;;82.95;;
35677;SDS011;21791;42.828;74.582;2023-01-19T00:05:21;273.15;;;115.05;;
35677;SDS011;21791;42.828;74.582;2023-01-19T00:07:47;253.63;;;101.32;;
35677;SDS011;21791;42.828;74.582;2023-01-19T00:10:14;211.77;;;87.72;;
35677;SDS011;21791;42.828;74.582;2023-01-19T00:12:40;313.80;;;130.15;;
35677;SDS011;21791;42.828;74.582;2023-01-19T00:15:07;396.05;;;159.48;;
35677;SDS011;21791;42.828;74.582;2023-01-19T00:17:34;343.27;;;138.35;;
35677;SDS011;21791;42.828;74.582;2023-01-19T00:20:00;346.05;;;138.00;;
35677;SDS011;21791;42.828;74.582;2023-01-19T00:22:28;353.38;;;140.45;;
35677;SDS011;21791;42.828;74.582;2023-01-19T00:24:55;339.88;;;140.30;;
35677;SDS011;21791;42.828;74.582;2023-01-19T00:27:21;391.98;;;151.32;;
35677;SDS011;21791;42.828;74.582;2023-01-19T00:29:48;402.23;;;155.98;;
35677;SDS011;21791;42.828;74.582;2023-01-19T00:32:14;427.65;;;166.82;;
35677;SDS011;21791;42.828;74.582;2023-01-19T00:34:42;409.48;;;158.93;;
35677;SDS011;21791;42.828;74.582;2023-01-19T00:37:14;386.20;;;152.38;;
35677;SDS011;21791;42.828;74.582;2023-01-19T00:39:42;358.17;;;134.90;;
35677;SDS011;21791;42.828;74.582;2023-01-19T00:42:10;382.08;;;149.27;;
35677;SDS011;21791;42.828;74.582;2023-01-19T00:44:55;303.88;;;122.38;;
35677;SDS011;21791;42.828;74.582;2023-01-19T00:47:22;276.50;;;111.13;;
35677;SDS011;21791;42.828;74.582;2023-01-19T00:49:48;274.70;;;107.45;;
35677;SDS011;21791;42.828;74.582;2023-01-19T00:52:15;293.85;;;117.30;;
35677;SDS011;21791;42.828;74.582;2023-01-19T00:54:41;277.38;;;115.95;;
35677;SDS011;21791;42.828;74.582;2023-01-19T00:57:08;255.82;;;99.40;;
35677;SDS011;21791;42.828;74.582;2023-01-19T00:59:35;256.35;;;102.38;;
35677;SDS011;21791;42.828;74.582;2023-01-19T01:02:01;241.70;;;93.85;;
35677;SDS011;21791;42.828;74.582;2023-01-19T01:04:27;244.68;;;99.20;;
35677;SDS011;21791;42.828;74.582;2023-01-19T01:06:54;269.20;;;107.10;;
35677;SDS011;21791;42.828;74.582;2023-01-19T01:09:20;280.90;;;111.38;;
35677;SDS011;21791;42.828;74.582;2023-01-19T01:11:47;264.48;;;107.28;;
35677;SDS011;21791;42.828;74.582;2023-01-19T01:14:14;250.90;;;101.47;;
35677;SDS011;21791;42.828;74.582;2023-01-19T01:16:40;257.67;;;103.28;;
35677;SDS011;21791;42.828;74.582;2023-01-19T01:19:07;274.05;;;110.18;;
35677;SDS011;21791;42.828;74.582;2023-01-19T01:21:34;266.58;;;106.28;;
35677;SDS011;21791;42.828;74.582;2023-01-19T01:24:02;270.35;;;103.85;;
35677;SDS011;21791;42.828;74.582;2023-01-19T01:26:29;264.20;;;101.70;;
35677;SDS011;21791;42.828;74.582;2023-01-19T01:28:56;235.45;;;93.60;;
35677;SDS011;21791;42.828;74.582;2023-01-19T01:31:22;263.65;;;107.13;;
35677;SDS011;21791;42.828;74.582;2023-01-19T01:33:48;259.15;;;105.13;;
35677;SDS011;21791;42.828;74.582;2023-01-19T01:36:15;285.58;;;106.93;;
35677;SDS011;21791;42.828;74.582;2023-01-19T01:38:43;245.55;;;101.43;;
35677;SDS011;21791;42.828;74.582;2023-01-19T01:41:10;285.85;;;107.90;;
35677;SDS011;21791;42.828;74.582;2023-01-19T01:43:43;281.48;;;113.65;;
35677;SDS011;21791;42.828;74.582;2023-01-19T01:46:13;290.90;;;114.25;;
35677;SDS011;21791;42.828;74.582;2023-01-19T01:49:23;268.27;;;107.03;;
35677;SDS011;21791;42.828;74.582;2023-01-19T01:51:41;232.50;;;93.72;;
35677;SDS011;21791;42.828;74.582;2023-01-19T01:54:17;240.55;;;96.57;;
35677;SDS011;21791;42.828;74.582;2023-01-19T01:56:48;218.23;;;89.80;;
35677;SDS011;21791;42.828;74.582;2023-01-19T01:59:18;213.90;;;84.68;;
35677;SDS011;21791;42.828;74.582;2023-01-19T02:02:04;202.13;;;80.05;;
35677;SDS011;21791;42.828;74.582;2023-01-19T02:04:53;194.98;;;76.78;;
35677;SDS011;21791;42.828;74.582;2023-01-19T02:07:28;170.55;;;70.85;;
35677;SDS011;21791;42.828;74.582;2023-01-19T02:10:22;170.95;;;64.75;;
35677;SDS011;21791;42.828;74.582;2023-01-19T02:13:07;147.15;;;63.00;;
35677;SDS011;21791;42.828;74.582;2023-01-19T02:15:50;163.00;;;66.10;;
35677;SDS011;21791;42.828;74.582;2023-01-19T02:18:19;147.55;;;62.22;;
35677;SDS011;21791;42.828;74.582;2023-01-19T02:20:50;155.05;;;62.60;;
35677;SDS011;21791;42.828;74.582;2023-01-19T02:23:49;160.13;;;63.17;;
35677;SDS011;21791;42.828;74.582;2023-01-19T02:26:28;140.60;;;56.33;;
35677;SDS011;21791;42.828;74.582;2023-01-19T02:29:01;164.43;;;63.28;;
35677;SDS011;21791;42.828;74.582;2023-01-19T02:31:36;159.80;;;65.78;;
35677;SDS011;21791;42.828;74.582;2023-01-19T02:34:05;138.52;;;54.85;;
35677;SDS011;21791;42.828;74.582;2023-01-19T02:36:38;143.73;;;58.67;;
35677;SDS011;21791;42.828;74.582;2023-01-19T02:39:17;162.88;;;64.60;;
35677;SDS011;21791;42.828;74.582;2023-01-19T02:41:47;145.88;;;57.90;;
35677;SDS011;21791;42.828;74.582;2023-01-19T02:44:17;157.80;;;61.15;;
35677;SDS011;21791;42.828;74.582;2023-01-19T02:46:47;168.35;;;66.22;;
35677;SDS011;21791;42.828;74.582;2023-01-19T02:49:13;148.73;;;59.47;;
35677;SDS011;21791;42.828;74.582;2023-01-19T02:51:41;135.20;;;56.13;;
35677;SDS011;21791;42.828;74.582;2023-01-19T02:57:24;141.63;;;59.30;;
35677;SDS011;21791;42.828;74.582;2023-01-19T03:11:09;126.07;;;50.45;;
35677;SDS011;21791;42.828;74.582;2023-01-19T03:13:56;96.63;;;43.42;;
35677;SDS011;21791;42.828;74.582;2023-01-19T03:16:35;96.10;;;43.20;;
35677;SDS011;21791;42.828;74.582;2023-01-19T03:19:20;74.53;;;33.30;;
35677;SDS011;21791;42.828;74.582;2023-01-19T03:21:53;78.47;;;32.67;;
35677;SDS011;21791;42.828;74.582;2023-01-19T03:24:23;96.13;;;41.00;;
35677;SDS011;21791;42.828;74.582;2023-01-19T03:26:55;96.28;;;42.50;;
35677;SDS011;21791;42.828;74.582;2023-01-19T03:29:27;87.35;;;39.38;;
35677;SDS011;21791;42.828;74.582;2023-01-19T03:31:56;87.18;;;40.75;;
35677;SDS011;21791;42.828;74.582;2023-01-19T03:34:26;121.55;;;47.10;;
35677;SDS011;21791;42.828;74.582;2023-01-19T03:36:54;135.98;;;50.92;;
35677;SDS011;21791;42.828;74.582;2023-01-19T03:39:25;88.45;;;41.10;;
35677;SDS011;21791;42.828;74.582;2023-01-19T03:41:54;88.28;;;40.47;;
35677;SDS011;21791;42.828;74.582;2023-01-19T03:44:27;88.63;;;38.38;;
35677;SDS011;21791;42.828;74.582;2023-01-19T03:46:57;98.07;;;44.88;;
35677;SDS011;21791;42.828;74.582;2023-01-19T03:49:24;127.18;;;51.58;;
35677;SDS011;21791;42.828;74.582;2023-01-19T03:51:54;99.53;;;45.38;;
35677;SDS011;21791;42.828;74.582;2023-01-19T03:54:21;103.57;;;45.70;;
35677;SDS011;21791;42.828;74.582;2023-01-19T03:56:48;114.05;;;49.33;;
35677;SDS011;21791;42.828;74.582;2023-01-19T03:59:14;89.35;;;44.70;;
35677;SDS011;21791;42.828;74.582;2023-01-19T04:01:42;75.65;;;40.60;;
35677;SDS011;21791;42.828;74.582;2023-01-19T04:04:08;84.05;;;42.95;;
35677;SDS011;21791;42.828;74.582;2023-01-19T04:06:35;85.25;;;43.33;;
35677;SDS011;21791;42.828;74.582;2023-01-19T04:09:01;86.55;;;44.08;;
35677;SDS011;21791;42.828;74.582;2023-01-19T04:11:27;77.20;;;38.95;;
35677;SDS011;21791;42.828;74.582;2023-01-19T04:13:54;76.85;;;38.00;;
35677;SDS011;21791;42.828;74.582;2023-01-19T04:16:21;72.95;;;38.60;;
35677;SDS011;21791;42.828;74.582;2023-01-19T04:18:48;65.65;;;35.80;;
35677;SDS011;21791;42.828;74.582;2023-01-19T04:21:17;62.58;;;35.42;;
35677;SDS011;21791;42.828;74.582;2023-01-19T04:23:44;59.45;;;33.90;;
35677;SDS011;21791;42.828;74.582;2023-01-19T04:26:11;65.40;;;37.67;;
35677;SDS011;21791;42.828;74.582;2023-01-19T04:28:38;77.70;;;44.33;;
35677;SDS011;21791;42.828;74.582;2023-01-19T04:31:04;83.18;;;45.13;;
35677;SDS011;21791;42.828;74.582;2023-01-19T04:33:32;67.55;;;41.60;;
35677;SDS011;21791;42.828;74.582;2023-01-19T04:35:59;73.70;;;43.03;;
35677;SDS011;21791;42.828;74.582;2023-01-19T04:38:26;75.68;;;46.15;;
35677;SDS011;21791;42.828;74.582;2023-01-19T04:40:53;86.90;;;49.55;;
35677;SDS011;21791;42.828;74.582;2023-01-19T04:43:20;78.53;;;49.17;;
35677;SDS011;21791;42.828;74.582;2023-01-19T04:45:47;82.95;;;47.60;;
35677;SDS011;21791;42.828;74.582;2023-01-19T04:48:14;78.80;;;48.88;;
35677;SDS011;21791;42.828;74.582;2023-01-19T04:50:42;79.18;;;49.33;;
35677;SDS011;21791;42.828;74.582;2023-01-19T04:53:09;75.10;;;48.10;;
35677;SDS011;21791;42.828;74.582;2023-01-19T04:55:37;72.32;;;46.70;;
35677;SDS011;21791;42.828;74.582;2023-01-19T04:58:05;64.60;;;43.83;;
35677;SDS011;21791;42.828;74.582;2023-01-19T05:00:31;67.75;;;47.15;;
35677;SDS011;21791;42.828;74.582;2023-01-19T05:02:58;67.20;;;43.15;;
35677;SDS011;21791;42.828;74.582;2023-01-19T05:05:25;83.03;;;55.92;;
35677;SDS011;21791;42.828;74.582;2023-01-19T05:07:52;90.43;;;55.47;;
35677;SDS011;21791;42.828;74.582;2023-01-19T05:10:19;92.50;;;57.28;;
35677;SDS011;21791;42.828;74.582;2023-01-19T05:12:46;91.18;;;55.90;;
35677;SDS011;21791;42.828;74.582;2023-01-19T05:15:12;88.28;;;55.35;;
35677;SDS011;21791;42.828;74.582;2023-01-19T05:17:38;85.68;;;53.05;;
35677;SDS011;21791;42.828;74.582;2023-01-19T05:20:05;75.30;;;47.92;;
35677;SDS011;21791;42.828;74.582;2023-01-19T05:22:32;79.70;;;46.10;;
35677;SDS011;21791;42.828;74.582;2023-01-19T05:24:58;79.70;;;50.20;;
35677;SDS011;21791;42.828;74.582;2023-01-19T05:27:26;78.13;;;51.47;;
35677;SDS011;21791;42.828;74.582;2023-01-19T05:29:52;74.82;;;50.58;;
35677;SDS011;21791;42.828;74.582;2023-01-19T05:32:19;74.10;;;48.50;;
35677;SDS011;21791;42.828;74.582;2023-01-19T05:34:45;75.18;;;47.05;;
35677;SDS011;21791;42.828;74.582;2023-01-19T05:37:12;69.47;;;44.65;;
35677;SDS011;21791;42.828;74.582;2023-01-19T05:39:38;64.53;;;44.40;;
35677;SDS011;21791;42.828;74.582;2023-01-19T05:42:05;87.18;;;54.75;;
35677;SDS011;21791;42.828;74.582;2023-01-19T05:44:31;87.45;;;59.05;;
35677;SDS011;21791;42.828;74.582;2023-01-19T05:46:58;85.28;;;59.60;;
35677;SDS011;21791;42.828;74.582;2023-01-19T05:49:24;80.07;;;54.22;;
35677;SDS011;21791;42.828;74.582;2023-01-19T05:51:51;71.18;;;48.47;;
35677;SDS011;21791;42.828;74.582;2023-01-19T05:54:18;125.28;;;81.13;;
35677;SDS011;21791;42.828;74.582;2023-01-19T05:56:44;144.05;;;92.85;;
35677;SDS011;21791;42.828;74.582;2023-01-19T05:59:11;186.80;;;120.60;;
35677;SDS011;21791;42.828;74.582;2023-01-19T06:01:37;186.77;;;121.28;;
35677;SDS011;21791;42.828;74.582;2023-01-19T06:04:04;188.52;;;120.53;;
35677;SDS011;21791;42.828;74.582;2023-01-19T06:06:30;252.70;;;157.52;;
35677;SDS011;21791;42.828;74.582;2023-01-19T06:08:57;244.93;;;150.55;;
35677;SDS011;21791;42.828;74.582;2023-01-19T06:11:23;249.85;;;149.20;;
35677;SDS011;21791;42.828;74.582;2023-01-19T06:13:50;243.60;;;146.18;;
35677;SDS011;21791;42.828;74.582;2023-01-19T06:16:17;250.07;;;145.40;;
35677;SDS011;21791;42.828;74.582;2023-01-19T06:18:43;237.20;;;143.70;;
35677;SDS011;21791;42.828;74.582;2023-01-19T06:21:10;249.27;;;145.70;;
35677;SDS011;21791;42.828;74.582;2023-01-19T06:23:38;263.73;;;151.55;;
35677;SDS011;21791;42.828;74.582;2023-01-19T06:26:04;279.52;;;161.90;;
35677;SDS011;21791;42.828;74.582;2023-01-19T06:28:31;280.55;;;167.90;;
35677;SDS011;21791;42.828;74.582;2023-01-19T06:30:57;283.70;;;162.40;;
35677;SDS011;21791;42.828;74.582;2023-01-19T06:33:24;325.70;;;193.60;;
35677;SDS011;21791;42.828;74.582;2023-01-19T06:35:52;365.75;;;227.02;;
35677;SDS011;21791;42.828;74.582;2023-01-19T06:38:18;355.40;;;215.23;;
35677;SDS011;21791;42.828;74.582;2023-01-19T06:40:50;348.35;;;215.52;;
35677;SDS011;21791;42.828;74.582;2023-01-19T06:43:19;374.10;;;227.18;;
35677;SDS011;21791;42.828;74.582;2023-01-19T06:45:46;373.20;;;233.55;;
35677;SDS011;21791;42.828;74.582;2023-01-19T06:48:13;386.92;;;238.10;;
35677;SDS011;21791;42.828;74.582;2023-01-19T06:50:39;406.13;;;246.75;;
35677;SDS011;21791;42.828;74.582;2023-01-19T06:53:06;405.80;;;247.93;;
35677;SDS011;21791;42.828;74.582;2023-01-19T06:55:32;408.15;;;241.82;;
35677;SDS011;21791;42.828;74.582;2023-01-19T06:58:01;428.77;;;256.10;;
35677;SDS011;21791;42.828;74.582;2023-01-19T07:00:27;423.90;;;253.05;;
35677;SDS011;21791;42.828;74.582;2023-01-19T07:02:54;427.00;;;253.05;;
35677;SDS011;21791;42.828;74.582;2023-01-19T07:05:20;427.88;;;251.38;;
35677;SDS011;21791;42.828;74.582;2023-01-19T07:07:50;413.10;;;247.32;;
35677;SDS011;21791;42.828;74.582;2023-01-19T07:10:18;415.77;;;250.15;;
35677;SDS011;21791;42.828;74.582;2023-01-19T07:12:44;412.55;;;253.77;;
35677;SDS011;21791;42.828;74.582;2023-01-19T07:15:12;411.98;;;254.93;;
35677;SDS011;21791;42.828;74.582;2023-01-19T07:17:39;410.05;;;254.50;;
35677;SDS011;21791;42.828;74.582;2023-01-19T07:20:08;417.85;;;257.05;;
35677;SDS011;21791;42.828;74.582;2023-01-19T07:22:37;433.45;;;272.02;;
35677;SDS011;21791;42.828;74.582;2023-01-19T07:25:04;418.38;;;264.38;;
35677;SDS011;21791;42.828;74.582;2023-01-19T07:27:31;435.35;;;271.10;;
35677;SDS011;21791;42.828;74.582;2023-01-19T07:29:57;440.55;;;272.48;;
35677;SDS011;21791;42.828;74.582;2023-01-19T07:32:26;438.98;;;275.42;;
35677;SDS011;21791;42.828;74.582;2023-01-19T07:34:53;445.13;;;272.58;;
35677;SDS011;21791;42.828;74.582;2023-01-19T07:37:20;442.23;;;276.40;;
35677;SDS011;21791;42.828;74.582;2023-01-19T07:39:47;455.25;;;280.02;;
35677;SDS011;21791;42.828;74.582;2023-01-19T07:42:13;463.52;;;281.38;;
35677;SDS011;21791;42.828;74.582;2023-01-19T07:44:39;463.63;;;280.58;;
35677;SDS011;21791;42.828;74.582;2023-01-19T07:47:06;458.27;;;278.77;;
35677;SDS011;21791;42.828;74.582;2023-01-19T07:49:35;465.60;;;290.65;;
35677;SDS011;21791;42.828;74.582;2023-01-19T07:52:01;455.02;;;289.52;;
35677;SDS011;21791;42.828;74.582;2023-01-19T07:54:28;468.98;;;291.95;;
35677;SDS011;21791;42.828;74.582;2023-01-19T07:56:55;473.85;;;302.80;;
35677;SDS011;21791;42.828;74.582;2023-01-19T07:59:21;483.25;;;304.33;;
35677;SDS011;21791;42.828;74.582;2023-01-19T08:01:48;474.90;;;300.52;;
35677;SDS011;21791;42.828;74.582;2023-01-19T08:04:14;473.77;;;295.85;;
35677;SDS011;21791;42.828;74.582;2023-01-19T08:06:44;475.98;;;292.23;;
35677;SDS011;21791;42.828;74.582;2023-01-19T08:09:14;473.30;;;289.40;;
35677;SDS011;21791;42.828;74.582;2023-01-19T08:11:41;464.30;;;287.52;;
35677;SDS011;21791;42.828;74.582;2023-01-19T08:14:07;469.73;;;284.63;;
35677;SDS011;21791;42.828;74.582;2023-01-19T08:16:34;460.00;;;278.10;;
35677;SDS011;21791;42.828;74.582;2023-01-19T08:19:02;468.27;;;285.05;;
35677;SDS011;21791;42.828;74.582;2023-01-19T08:21:28;465.38;;;279.77;;
35677;SDS011;21791;42.828;74.582;2023-01-19T08:23:56;448.60;;;273.52;;
35677;SDS011;21791;42.828;74.582;2023-01-19T08:28:57;442.60;;;269.13;;
35677;SDS011;21791;42.828;74.582;2023-01-19T08:31:28;454.25;;;270.20;;
35677;SDS011;21791;42.828;74.582;2023-01-19T08:33:55;443.52;;;270.27;;
35677;SDS011;21791;42.828;74.582;2023-01-19T08:36:21;445.65;;;271.50;;
35677;SDS011;21791;42.828;74.582;2023-01-19T08:38:49;436.10;;;271.17;;
35677;SDS011;21791;42.828;74.582;2023-01-19T08:41:16;437.23;;;271.63;;
35677;SDS011;21791;42.828;74.582;2023-01-19T08:43:43;424.83;;;266.17;;
35677;SDS011;21791;42.828;74.582;2023-01-19T08:46:10;439.45;;;268.50;;
35677;SDS011;21791;42.828;74.582;2023-01-19T08:48:36;422.90;;;265.38;;
35677;SDS011;21791;42.828;74.582;2023-01-19T08:51:03;446.83;;;272.85;;
35677;SDS011;21791;42.828;74.582;2023-01-19T08:53:29;426.23;;;265.88;;
35677;SDS011;21791;42.828;74.582;2023-01-19T08:55:56;419.95;;;263.00;;
35677;SDS011;21791;42.828;74.582;2023-01-19T08:58:26;416.90;;;257.60;;
35677;SDS011;21791;42.828;74.582;2023-01-19T09:00:53;411.27;;;261.70;;
35677;SDS011;21791;42.828;74.582;2023-01-19T09:03:20;445.80;;;268.77;;
35677;SDS011;21791;42.828;74.582;2023-01-19T09:05:47;453.05;;;274.98;;
35677;SDS011;21791;42.828;74.582;2023-01-19T09:08:15;443.55;;;271.98;;
35677;SDS011;21791;42.828;74.582;2023-01-19T09:10:45;445.30;;;268.80;;
35677;SDS011;21791;42.828;74.582;2023-01-19T09:13:13;446.75;;;266.63;;
35677;SDS011;21791;42.828;74.582;2023-01-19T09:15:40;431.50;;;263.73;;
35677;SDS011;21791;42.828;74.582;2023-01-19T09:18:09;433.65;;;261.08;;
35677;SDS011;21791;42.828;74.582;2023-01-19T09:20:41;427.40;;;264.70;;
35677;SDS011;21791;42.828;74.582;2023-01-19T09:23:09;447.60;;;271.00;;
35677;SDS011;21791;42.828;74.582;2023-01-19T09:25:37;460.05;;;284.88;;
35677;SDS011;21791;42.828;74.582;2023-01-19T09:28:05;488.92;;;290.88;;
35677;SDS011;21791;42.828;74.582;2023-01-19T09:30:34;486.77;;;287.67;;
35677;SDS011;21791;42.828;74.582;2023-01-19T09:33:03;508.50;;;301.08;;
35677;SDS011;21791;42.828;74.582;2023-01-19T09:35:32;514.28;;;306.98;;
35677;SDS011;21791;42.828;74.582;2023-01-19T09:38:03;510.73;;;299.80;;
35677;SDS011;21791;42.828;74.582;2023-01-19T09:40:32;494.23;;;300.38;;
35677;SDS011;21791;42.828;74.582;2023-01-19T09:43:13;496.88;;;296.05;;
35677;SDS011;21791;42.828;74.582;2023-01-19T09:45:52;501.73;;;295.85;;
35677;SDS011;21791;42.828;74.582;2023-01-19T09:48:32;487.73;;;301.08;;
35677;SDS011;21791;42.828;74.582;2023-01-19T09:51:17;507.95;;;299.20;;
35677;SDS011;21791;42.828;74.582;2023-01-19T09:56:28;509.65;;;307.90;;
35677;SDS011;21791;42.828;74.582;2023-01-19T09:58:56;510.70;;;308.25;;
35677;SDS011;21791;42.828;74.582;2023-01-19T10:04:15;500.10;;;301.20;;
35677;SDS011;21791;42.828;74.582;2023-01-19T10:12:38;458.60;;;266.08;;
35677;SDS011;21791;42.828;74.582;2023-01-19T10:18:25;443.38;;;259.13;;
35677;SDS011;21791;42.828;74.582;2023-01-19T10:20:52;454.15;;;267.60;;
35677;SDS011;21791;42.828;74.582;2023-01-19T10:26:20;438.63;;;260.20;;
35677;SDS011;21791;42.828;74.582;2023-01-19T10:28:54;428.67;;;247.38;;
35677;SDS011;21791;42.828;74.582;2023-01-19T10:31:24;445.67;;;253.13;;
35677;SDS011;21791;42.828;74.582;2023-01-19T10:33:51;441.92;;;251.75;;
35677;SDS011;21791;42.828;74.582;2023-01-19T10:36:27;450.83;;;250.82;;
35677;SDS011;21791;42.828;74.582;2023-01-19T10:38:59;461.80;;;251.15;;
35677;SDS011;21791;42.828;74.582;2023-01-19T10:44:07;438.48;;;244.85;;
35677;SDS011;21791;42.828;74.582;2023-01-19T10:46:44;439.05;;;242.55;;
35677;SDS011;21791;42.828;74.582;2023-01-19T10:52:03;442.38;;;239.23;;
35677;SDS011;21791;42.828;74.582;2023-01-19T10:54:41;457.30;;;251.38;;
35677;SDS011;21791;42.828;74.582;2023-01-19T10:57:11;445.73;;;240.02;;
35677;SDS011;21791;42.828;74.582;2023-01-19T10:59:47;435.40;;;235.20;;
35677;SDS011;21791;42.828;74.582;2023-01-19T11:04:42;424.35;;;230.95;;
35677;SDS011;21791;42.828;74.582;2023-01-19T11:07:16;420.10;;;220.50;;
35677;SDS011;21791;42.828;74.582;2023-01-19T11:09:48;399.58;;;219.80;;
35677;SDS011;21791;42.828;74.582;2023-01-19T11:12:42;401.60;;;212.20;;
35677;SDS011;21791;42.828;74.582;2023-01-19T11:15:20;401.08;;;211.27;;
35677;SDS011;21791;42.828;74.582;2023-01-19T11:17:50;400.58;;;210.10;;
35677;SDS011;21791;42.828;74.582;2023-01-19T11:20:19;397.35;;;208.15;;
35677;SDS011;21791;42.828;74.582;2023-01-19T11:25:39;401.17;;;203.73;;
35677;SDS011;21791;42.828;74.582;2023-01-19T11:28:16;388.40;;;202.82;;
35677;SDS011;21791;42.828;74.582;2023-01-19T11:30:56;389.58;;;203.10;;
35677;SDS011;21791;42.828;74.582;2023-01-19T11:36:15;383.83;;;199.18;;
35677;SDS011;21791;42.828;74.582;2023-01-19T11:38:43;396.55;;;194.93;;
35677;SDS011;21791;42.828;74.582;2023-01-19T11:41:25;395.88;;;197.65;;
35677;SDS011;21791;42.828;74.582;2023-01-19T11:43:52;387.73;;;194.70;;
35677;SDS011;21791;42.828;74.582;2023-01-19T11:46:25;380.80;;;197.85;;
35677;SDS011;21791;42.828;74.582;2023-01-19T11:48:58;395.17;;;195.38;;
35677;SDS011;21791;42.828;74.582;2023-01-19T11:51:51;382.40;;;195.18;;
35677;SDS011;21791;42.828;74.582;2023-01-19T11:54:31;392.98;;;197.32;;
35677;SDS011;21791;42.828;74.582;2023-01-19T11:57:09;382.77;;;193.02;;
35677;SDS011;21791;42.828;74.582;2023-01-19T11:59:39;386.10;;;196.27;;
35677;SDS011;21791;42.828;74.582;2023-01-19T12:02:12;403.30;;;204.35;;
35677;SDS011;21791;42.828;74.582;2023-01-19T12:04:56;390.65;;;202.30;;
35677;SDS011;21791;42.828;74.582;2023-01-19T12:07:30;391.95;;;200.15;;
35677;SDS011;21791;42.828;74.582;2023-01-19T12:10:06;378.13;;;196.40;;
35677;SDS011;21791;42.828;74.582;2023-01-19T12:12:55;381.95;;;198.98;;
35677;SDS011;21791;42.828;74.582;2023-01-19T12:18:11;386.65;;;193.30;;
35677;SDS011;21791;42.828;74.582;2023-01-19T12:20:50;410.15;;;207.43;;
35677;SDS011;21791;42.828;74.582;2023-01-19T12:23:27;411.50;;;208.93;;
35677;SDS011;21791;42.828;74.582;2023-01-19T12:26:12;415.45;;;211.95;;
35677;SDS011;21791;42.828;74.582;2023-01-19T12:28:47;391.83;;;198.52;;
35677;SDS011;21791;42.828;74.582;2023-01-19T12:31:16;418.73;;;209.30;;
35677;SDS011;21791;42.828;74.582;2023-01-19T12:33:44;404.33;;;206.35;;
35677;SDS011;21791;42.828;74.582;2023-01-19T12:39:03;457.35;;;231.05;;
35677;SDS011;21791;42.828;74.582;2023-01-19T12:41:41;444.77;;;227.05;;
35677;SDS011;21791;42.828;74.582;2023-01-19T12:51:50;455.05;;;233.95;;
35677;SDS011;21791;42.828;74.582;2023-01-19T12:54:27;473.50;;;231.07;;
35677;SDS011;21791;42.828;74.582;2023-01-19T12:57:00;479.42;;;242.85;;
35677;SDS011;21791;42.828;74.582;2023-01-19T12:59:31;487.70;;;240.82;;
35677;SDS011;21791;42.828;74.582;2023-01-19T13:13:22;462.40;;;233.35;;
35677;SDS011;21791;42.828;74.582;2023-01-19T13:15:56;492.15;;;245.07;;
35677;SDS011;21791;42.828;74.582;2023-01-19T13:23:54;478.52;;;233.27;;
35677;SDS011;21791;42.828;74.582;2023-01-19T13:26:29;477.42;;;233.77;;
35677;SDS011;21791;42.828;74.582;2023-01-19T13:29:09;458.20;;;227.68;;
35677;SDS011;21791;42.828;74.582;2023-01-19T13:32:15;414.95;;;208.25;;
35677;SDS011;21791;42.828;74.582;2023-01-19T13:34:49;391.92;;;193.80;;
35677;SDS011;21791;42.828;74.582;2023-01-19T13:37:22;349.67;;;169.25;;
35677;SDS011;21791;42.828;74.582;2023-01-19T13:39:58;310.58;;;146.07;;
35677;SDS011;21791;42.828;74.582;2023-01-19T13:42:42;356.88;;;170.95;;
35677;SDS011;21791;42.828;74.582;2023-01-19T13:47:53;263.00;;;122.55;;
35677;SDS011;21791;42.828;74.582;2023-01-19T13:50:24;211.13;;;96.60;;
35677;SDS011;21791;42.828;74.582;2023-01-19T13:52:52;209.80;;;98.93;;
35677;SDS011;21791;42.828;74.582;2023-01-19T13:55:29;274.20;;;125.68;;
35677;SDS011;21791;42.828;74.582;2023-01-19T13:57:56;231.98;;;107.85;;
35677;SDS011;21791;42.828;74.582;2023-01-19T14:00:26;184.35;;;87.13;;
35677;SDS011;21791;42.828;74.582;2023-01-19T14:03:15;265.70;;;126.18;;
35677;SDS011;21791;42.828;74.582;2023-01-19T14:05:48;275.80;;;129.68;;
35677;SDS011;21791;42.828;74.582;2023-01-19T14:08:16;239.77;;;112.93;;
35677;SDS011;21791;42.828;74.582;2023-01-19T14:10:58;165.65;;;78.45;;
35677;SDS011;21791;42.828;74.582;2023-01-19T14:13:32;160.45;;;74.05;;
35677;SDS011;21791;42.828;74.582;2023-01-19T14:16:34;196.85;;;91.22;;
35677;SDS011;21791;42.828;74.582;2023-01-19T14:18:58;209.55;;;96.68;;
35677;SDS011;21791;42.828;74.582;2023-01-19T14:21:38;235.38;;;107.80;;
35677;SDS011;21791;42.828;74.582;2023-01-19T14:24:06;289.52;;;130.85;;
35677;SDS011;21791;42.828;74.582;2023-01-19T14:29:38;355.13;;;167.48;;
35677;SDS011;21791;42.828;74.582;2023-01-19T14:37:33;405.30;;;198.45;;
35677;SDS011;21791;42.828;74.582;2023-01-19T14:47:43;522.90;;;259.40;;
35677;SDS011;21791;42.828;74.582;2023-01-19T14:50:19;556.47;;;292.88;;
35677;SDS011;21791;42.828;74.582;2023-01-19T14:52:59;571.47;;;286.83;;
35677;SDS011;21791;42.828;74.582;2023-01-19T14:57:58;548.72;;;270.83;;
35677;SDS011;21791;42.828;74.582;2023-01-19T15:00:28;559.47;;;273.73;;
35677;SDS011;21791;42.828;74.582;2023-01-19T15:02:54;497.15;;;242.57;;
35677;SDS011;21791;42.828;74.582;2023-01-19T15:05:20;502.33;;;244.52;;
35677;SDS011;21791;42.828;74.582;2023-01-19T15:07:48;522.05;;;259.73;;
35677;SDS011;21791;42.828;74.582;2023-01-19T15:10:19;557.53;;;281.73;;
35677;SDS011;21791;42.828;74.582;2023-01-19T15:12:48;558.25;;;286.02;;
35677;SDS011;21791;42.828;74.582;2023-01-19T15:15:20;518.03;;;250.75;;
35677;SDS011;21791;42.828;74.582;2023-01-19T15:18:02;437.00;;;216.70;;
35677;SDS011;21791;42.828;74.582;2023-01-19T15:20:37;483.60;;;237.25;;
35677;SDS011;21791;42.828;74.582;2023-01-19T15:23:03;394.00;;;184.90;;
35677;SDS011;21791;42.828;74.582;2023-01-19T15:25:32;337.33;;;159.05;;
35677;SDS011;21791;42.828;74.582;2023-01-19T15:27:58;355.10;;;170.30;;
35677;SDS011;21791;42.828;74.582;2023-01-19T15:30:27;371.42;;;176.13;;
35677;SDS011;21791;42.828;74.582;2023-01-19T15:32:58;360.42;;;166.82;;
35677;SDS011;21791;42.828;74.582;2023-01-19T15:35:26;338.52;;;152.30;;
35677;SDS011;21791;42.828;74.582;2023-01-19T15:37:53;323.42;;;149.15;;
35677;SDS011;21791;42.828;74.582;2023-01-19T15:40:22;250.52;;;116.95;;
35677;SDS011;21791;42.828;74.582;2023-01-19T15:42:51;206.15;;;94.20;;
35677;SDS011;21791;42.828;74.582;2023-01-19T15:47:56;154.43;;;71.63;;
35677;SDS011;21791;42.828;74.582;2023-01-19T15:50:24;163.43;;;74.47;;